Terminal Aerodrome Forecast
Issued by NWS Indianapolis, IN

Home | Current Version | Previous Version | Text Only | Print | Product List | Glossary On
Versions: 1 2 3 4 5 6 7 8 9 10 11 12 13 14 15 16 17 18 19 20 21 22 23 24 25 26 27
000
FTUS43 KIND 070200 AAA
TAFIND
TAF AMD
KIND 070222Z 0702/0806 19010KT P6SM VCSH BKN180 BKN250
     FM071300 22010KT P6SM VCSH SCT025 BKN050
     FM071800 24011KT P6SM VCSH BKN025
     FM072300 32006KT P6SM VCSH OVC020=

USA.gov is the U.S. government's official web portal to all federal, state and local government web resources and services.